createdAt,value
2019-02-17T05:00:50.061Z,-4.10
2019-02-17T05:01:40.539Z,-4.10
2019-02-17T05:02:41.984Z,-4.03
2019-02-17T05:03:42.212Z,-4.04
2019-02-17T05:04:40.885Z,-3.97
2019-02-17T05:05:41.166Z,-4.11
2019-02-17T05:06:41.285Z,-3.96
2019-02-17T05:07:41.485Z,-4.06
2019-02-17T05:08:41.637Z,-4.07
2019-02-17T05:09:41.843Z,-4.21
2019-02-17T05:10:41.997Z,-4.28
2019-02-17T05:11:42.196Z,-4.22
2019-02-17T05:12:42.391Z,-4.30
2019-02-17T05:13:42.612Z,-4.38
2019-02-17T05:14:42.801Z,-4.33
2019-02-17T05:15:43.161Z,-4.39
2019-02-17T05:16:43.115Z,-4.38
2019-02-17T05:17:43.285Z,-4.38
2019-02-17T05:18:44.285Z,-4.36
2019-02-17T05:19:43.698Z,-4.39
2019-02-17T05:20:43.834Z,-4.32
2019-02-17T05:21:43.984Z,-4.35
2019-02-17T05:22:44.199Z,-4.29
2019-02-17T05:23:44.292Z,-4.28
2019-02-17T05:24:44.629Z,-4.28
2019-02-17T05:25:45.478Z,-4.15
2019-02-17T05:26:45.043Z,-4.21
2019-02-17T05:27:45.218Z,-4.24
2019-02-17T05:28:45.404Z,-4.11
2019-02-17T05:29:45.551Z,-4.12
2019-02-17T05:30:52.838Z,-4.12
2019-02-17T05:31:48.666Z,-4.10
2019-02-17T05:32:46.162Z,-4.24
2019-02-17T05:33:46.392Z,-4.28
2019-02-17T05:34:46.427Z,-4.28
2019-02-17T05:35:46.637Z,-4.29
2019-02-17T05:36:46.879Z,-4.32
2019-02-17T05:37:47.170Z,-4.36
2019-02-17T05:38:47.325Z,-4.25
2019-02-17T05:39:47.501Z,-4.39
2019-02-17T05:40:47.672Z,-4.51
2019-02-17T05:41:47.860Z,-4.49
2019-02-17T05:42:47.956Z,-4.57
2019-02-17T05:43:48.109Z,-4.60
2019-02-17T05:44:48.180Z,-4.54
2019-02-17T05:45:48.358Z,-4.68
2019-02-17T05:46:48.669Z,-4.71
2019-02-17T05:47:48.760Z,-4.81
2019-02-17T05:48:49.016Z,-4.69
2019-02-17T05:49:49.107Z,-4.67
2019-02-17T05:50:49.297Z,-4.71
2019-02-17T05:51:49.471Z,-4.75
2019-02-17T05:52:49.671Z,-4.81
2019-02-17T05:53:50.006Z,-4.78
2019-02-17T05:54:50.546Z,-4.81
2019-02-17T05:55:51.364Z,-4.78
2019-02-17T05:56:50.530Z,-4.78
2019-02-17T05:57:50.845Z,-4.74
2019-02-17T05:58:51.586Z,-4.69
2019-02-17T05:59:51.249Z,-4.61
2019-02-17T06:00:51.519Z,-4.46
2019-02-17T06:01:51.560Z,-4.42
2019-02-17T06:02:51.616Z,-4.24
2019-02-17T06:03:51.903Z,-4.18
2019-02-17T06:04:52.073Z,-4.18
2019-02-17T06:05:52.209Z,-4.07
2019-02-17T06:06:52.263Z,-3.97
2019-02-17T06:07:52.478Z,-4.03
2019-02-17T06:08:52.676Z,-3.99
2019-02-17T06:09:52.881Z,-3.85
2019-02-17T06:10:53.151Z,-3.85
2019-02-17T06:11:53.268Z,-3.99
2019-02-17T06:12:53.446Z,-4.06
2019-02-17T06:13:53.662Z,-4.15
2019-02-17T06:14:53.837Z,-4.15
2019-02-17T06:15:54.017Z,-4.20
2019-02-17T06:16:54.258Z,-4.30
2019-02-17T06:17:54.308Z,-4.38
2019-02-17T06:18:54.555Z,-4.25
2019-02-17T06:19:54.750Z,-4.22
2019-02-17T06:20:54.991Z,-4.17
2019-02-17T06:21:56.091Z,-4.22
2019-02-17T06:22:55.401Z,-4.25
2019-02-17T06:23:56.466Z,-4.33
2019-02-17T06:24:55.661Z,-4.30
2019-02-17T06:25:55.756Z,-4.22
2019-02-17T06:26:55.940Z,-4.29
2019-02-17T06:27:56.188Z,-4.17
2019-02-17T06:28:56.440Z,-4.22
2019-02-17T06:29:56.755Z,-4.20
2019-02-17T06:30:57.159Z,-4.12
2019-02-17T06:31:57.128Z,-4.10
2019-02-17T06:32:57.104Z,-4.10
2019-02-17T06:33:57.223Z,-4.20
2019-02-17T06:34:57.441Z,-4.28
2019-02-17T06:35:57.699Z,-4.01
2019-02-17T06:36:57.850Z,-3.86
2019-02-17T06:37:57.965Z,-3.75
2019-02-17T06:38:58.184Z,-3.63
2019-02-17T06:39:58.453Z,-3.57
2019-02-17T06:40:58.603Z,-3.57
2019-02-17T06:41:58.747Z,-3.49
2019-02-17T06:42:59.057Z,-3.54
2019-02-17T06:43:59.042Z,-3.48
2019-02-17T06:44:59.171Z,-3.53
2019-02-17T06:45:59.442Z,-3.57
2019-02-17T06:46:59.557Z,-3.64
2019-02-17T06:47:59.783Z,-3.66
2019-02-17T06:49:00.076Z,-3.62
2019-02-17T06:50:00.340Z,-3.62
2019-02-17T06:51:00.523Z,-3.62
2019-02-17T06:52:00.707Z,-3.62
2019-02-17T06:53:01.016Z,-3.67
2019-02-17T06:54:01.079Z,-3.62
2019-02-17T06:55:01.273Z,-3.62
2019-02-17T06:56:01.618Z,-3.67
2019-02-17T06:57:01.686Z,-3.69
2019-02-17T06:58:01.848Z,-3.64
2019-02-17T06:59:02.524Z,-3.46
2019-02-17T07:00:02.415Z,-3.42
2019-02-17T07:01:02.389Z,-3.33
2019-02-17T07:02:02.704Z,-3.25
2019-02-17T07:03:02.850Z,-3.27
2019-02-17T07:04:02.854Z,-3.30
2019-02-17T07:05:03.506Z,-3.27
2019-02-17T07:06:03.237Z,-3.18
2019-02-17T07:07:03.717Z,-3.20
2019-02-17T07:08:04.119Z,-3.17
2019-02-17T07:09:04.827Z,-3.20
2019-02-17T07:10:04.905Z,-3.20
2019-02-17T07:11:04.357Z,-3.23
2019-02-17T07:12:04.370Z,-3.30
2019-02-17T07:13:05.173Z,-3.30
2019-02-17T07:14:04.826Z,-3.27
2019-02-17T07:15:05.001Z,-3.20
2019-02-17T07:16:05.228Z,-3.28
2019-02-17T07:17:05.407Z,-3.30
2019-02-17T07:18:05.511Z,-3.28
2019-02-17T07:19:05.768Z,-3.27
2019-02-17T07:20:07.013Z,-3.30
2019-02-17T07:21:06.089Z,-3.30
2019-02-17T07:22:07.126Z,-3.30
2019-02-17T07:23:08.162Z,-3.30
2019-02-17T07:24:06.674Z,-3.15
2019-02-17T07:25:06.936Z,-3.05
2019-02-17T07:26:07.107Z,-3.00
2019-02-17T07:27:08.133Z,-2.97
2019-02-17T07:28:08.172Z,-2.86
2019-02-17T07:29:08.142Z,-2.86
2019-02-17T07:30:07.754Z,-2.85
2019-02-17T07:31:08.088Z,-2.82
2019-02-17T07:32:08.286Z,-2.82
2019-02-17T07:33:08.287Z,-2.81
2019-02-17T07:34:08.383Z,-2.79
2019-02-17T07:35:08.696Z,-2.81
2019-02-17T07:36:08.843Z,-2.84
2019-02-17T07:37:08.941Z,-2.78
2019-02-17T07:38:09.195Z,-2.73
2019-02-17T07:39:09.377Z,-2.61
2019-02-17T07:40:09.503Z,-2.56
2019-02-17T07:41:09.759Z,-2.43
2019-02-17T07:42:09.827Z,-2.34
2019-02-17T07:43:10.057Z,-2.08
2019-02-17T07:44:10.178Z,-2.09
2019-02-17T07:45:10.639Z,-1.95
2019-02-17T07:46:10.514Z,-1.80
2019-02-17T07:47:10.928Z,-1.56
2019-02-17T07:48:10.923Z,-1.41
2019-02-17T07:49:12.191Z,-1.23
2019-02-17T07:50:11.299Z,-1.16
2019-02-17T07:51:11.661Z,-1.07
2019-02-17T07:52:13.220Z,-0.99
2019-02-17T07:53:11.857Z,-0.80
2019-02-17T07:54:12.089Z,-0.57
2019-02-17T07:55:12.212Z,-0.40
2019-02-17T07:56:13.007Z,-0.18
2019-02-17T07:57:12.999Z,-0.03
2019-02-17T07:58:13.714Z,-0.05
2019-02-17T07:59:13.465Z,-0.01
2019-02-17T08:00:12.971Z,-0.01
2019-02-17T08:01:13.338Z,0.18
2019-02-17T08:02:13.210Z,0.21
2019-02-17T08:03:13.445Z,0.18
2019-02-17T08:04:13.589Z,0.29
2019-02-17T08:05:13.715Z,0.47
2019-02-17T08:06:13.880Z,0.57
2019-02-17T08:07:14.005Z,0.69
2019-02-17T08:08:14.209Z,0.62
2019-02-17T08:09:14.363Z,0.83
2019-02-17T08:10:14.529Z,0.79
2019-02-17T08:11:15.233Z,0.87
2019-02-17T08:12:14.782Z,1.05
2019-02-17T08:13:14.942Z,1.27
2019-02-17T08:14:15.117Z,1.42
2019-02-17T08:15:15.252Z,1.65
2019-02-17T08:16:15.356Z,1.87
2019-02-17T08:17:15.528Z,2.09
2019-02-17T08:18:16.361Z,2.12
2019-02-17T08:19:16.663Z,2.17
2019-02-17T08:20:16.659Z,2.21
2019-02-17T08:21:16.160Z,2.20
2019-02-17T08:22:16.261Z,2.21
2019-02-17T08:23:16.510Z,2.36
2019-02-17T08:24:16.645Z,2.23
2019-02-17T08:25:21.735Z,2.14
2019-02-17T08:26:19.080Z,2.28
2019-02-17T08:27:17.297Z,2.48
2019-02-17T08:28:17.434Z,2.82
2019-02-17T08:29:17.594Z,3.08
2019-02-17T08:30:17.753Z,3.40
2019-02-17T08:31:17.964Z,3.88
2019-02-17T08:32:18.141Z,4.06
2019-02-17T08:33:18.258Z,4.20
2019-02-17T08:34:18.396Z,4.37
2019-02-17T08:35:18.498Z,4.30
2019-02-17T08:36:18.728Z,4.41
2019-02-17T08:37:18.863Z,4.36
2019-02-17T08:38:19.039Z,4.27
2019-02-17T08:39:19.235Z,4.33
2019-02-17T08:40:19.399Z,4.37
2019-02-17T08:41:19.554Z,4.58
2019-02-17T08:42:19.687Z,4.69
2019-02-17T08:43:19.835Z,4.85
2019-02-17T08:44:19.984Z,4.75
2019-02-17T08:45:20.107Z,4.88
2019-02-17T08:46:20.236Z,5.35
2019-02-17T08:47:20.509Z,5.81
2019-02-17T08:48:20.605Z,5.94
2019-02-17T08:49:20.761Z,6.28
2019-02-17T08:50:20.919Z,6.33
2019-02-17T08:51:21.059Z,6.54
2019-02-17T08:52:21.176Z,6.74
2019-02-17T08:53:21.340Z,7.06
2019-02-17T08:54:21.474Z,7.15
2019-02-17T08:55:21.592Z,7.49
2019-02-17T08:56:21.859Z,7.75
2019-02-17T08:57:21.987Z,8.19
2019-02-17T08:58:22.147Z,8.44
2019-02-17T08:59:22.256Z,8.73
2019-02-17T09:15:36.389Z,10.25
2019-02-17T09:16:37.706Z,9.78
2019-02-17T09:17:37.835Z,9.69
2019-02-17T09:18:37.984Z,9.81
2019-02-17T09:19:38.140Z,10.07
2019-02-17T09:20:38.341Z,10.20
2019-02-17T09:21:38.585Z,10.32
2019-02-17T09:22:38.804Z,10.42
2019-02-17T09:23:39.011Z,10.60
2019-02-17T09:24:39.222Z,10.88
2019-02-17T09:25:39.447Z,11.10
2019-02-17T09:26:39.665Z,11.43
2019-02-17T09:27:40.906Z,11.60
2019-02-17T10:10:20.400Z,14.50
2019-02-17T10:11:20.628Z,14.47
2019-02-17T10:12:20.897Z,14.47
2019-02-17T10:13:21.041Z,14.54
2019-02-17T10:14:21.180Z,14.36
2019-02-17T10:15:22.535Z,14.18
2019-02-17T10:16:22.661Z,14.28
2019-02-17T10:17:22.961Z,14.32
2019-02-17T10:18:23.014Z,14.35
2019-02-17T10:19:23.127Z,14.47
2019-02-17T10:20:24.654Z,14.81
2019-02-17T10:21:24.875Z,14.61
2019-02-17T10:22:23.979Z,14.88
2019-02-17T10:23:24.143Z,14.70
2019-02-17T10:24:24.447Z,14.47
2019-02-17T10:25:25.153Z,14.37
2019-02-17T10:26:25.521Z,14.35
2019-02-17T10:27:25.352Z,14.46
2019-02-17T10:28:25.774Z,14.37
2019-02-17T10:29:24.944Z,14.61
2019-02-17T10:30:25.293Z,14.89
2019-02-17T10:31:25.371Z,15.11
2019-02-17T10:32:25.570Z,15.27
2019-02-17T10:33:26.105Z,15.34
2019-02-17T10:34:27.615Z,15.16
2019-02-17T10:35:25.880Z,15.35
2019-02-17T10:36:26.353Z,15.57
2019-02-17T10:37:26.217Z,15.87
2019-02-17T10:38:28.269Z,15.97
2019-02-17T10:39:28.166Z,15.67
2019-02-17T10:40:27.762Z,15.57
2019-02-17T10:41:26.887Z,15.87
2019-02-17T10:42:29.721Z,16.04
2019-02-17T10:43:28.318Z,16.34
2019-02-17T10:44:27.306Z,16.61
2019-02-17T10:45:33.930Z,16.98
2019-02-17T10:46:28.625Z,16.81
2019-02-17T10:47:27.722Z,17.06
2019-02-17T10:48:31.086Z,17.37
2019-02-17T10:49:29.192Z,17.68
2019-02-17T10:50:28.243Z,18.00
2019-02-17T10:51:28.613Z,18.05
2019-02-17T10:52:30.886Z,18.18
2019-02-17T10:53:29.588Z,17.48
2019-02-17T10:54:30.363Z,17.66
2019-02-17T10:55:29.162Z,17.68
2019-02-17T10:56:29.414Z,17.96
2019-02-17T10:57:29.384Z,18.27
2019-02-17T10:58:29.687Z,18.75
2019-02-17T10:59:46.350Z,18.94
2019-02-17T11:30:35.685Z,23.22
2019-02-17T11:31:37.661Z,23.36
2019-02-17T11:32:38.090Z,23.35
2019-02-17T11:33:37.252Z,23.50
2019-02-17T11:34:37.544Z,23.73
2019-02-17T11:35:37.646Z,23.80
2019-02-17T11:36:37.884Z,24.22
2019-02-17T11:37:37.963Z,24.02
2019-02-17T11:38:38.197Z,24.08
2019-02-17T11:39:38.437Z,24.10
2019-02-17T11:40:38.720Z,23.90
2019-02-17T11:41:38.837Z,24.16
2019-02-17T11:42:38.975Z,24.34
2019-02-17T11:43:39.091Z,24.42
2019-02-17T11:44:39.364Z,24.39
2019-02-17T11:45:39.472Z,24.73
2019-02-17T11:46:39.736Z,24.99
2019-02-17T11:47:39.855Z,25.39
2019-02-17T11:48:39.971Z,25.42
2019-02-17T11:49:40.254Z,25.55
2019-02-17T11:50:40.388Z,25.80
2019-02-17T11:51:40.496Z,26.06
2019-02-17T11:52:40.620Z,26.21
2019-02-17T11:53:40.824Z,26.51
2019-02-17T11:54:41.574Z,26.55
2019-02-17T11:55:41.338Z,26.39
2019-02-17T11:56:41.458Z,26.35
2019-02-17T11:57:41.552Z,26.48
2019-02-17T11:58:41.843Z,26.60
2019-02-17T11:59:42.053Z,26.65
2019-02-17T12:00:42.238Z,26.60
2019-02-17T12:01:42.382Z,26.69
2019-02-17T12:02:42.518Z,26.97
2019-02-17T12:03:42.653Z,27.22
2019-02-17T12:04:42.856Z,27.62
2019-02-17T12:05:43.070Z,27.84
2019-02-17T12:06:43.305Z,27.72
2019-02-17T12:07:43.502Z,27.72
2019-02-17T12:08:43.774Z,27.75
2019-02-17T12:09:43.901Z,27.62
2019-02-17T12:10:44.113Z,27.59
2019-02-17T12:11:44.260Z,27.46
2019-02-17T12:12:44.438Z,26.69
2019-02-17T12:13:44.699Z,26.40
2019-02-17T12:14:44.699Z,26.63
2019-02-17T12:15:44.823Z,27.03
2019-02-17T12:16:44.944Z,27.31
2019-02-17T12:17:45.237Z,27.43
2019-02-17T12:18:45.417Z,27.55
2019-02-17T12:19:45.621Z,27.47
2019-02-17T12:20:45.750Z,27.13
2019-02-17T12:21:45.912Z,26.35
2019-02-17T12:22:46.126Z,25.94
2019-02-17T12:23:46.348Z,25.57
2019-02-17T12:24:46.425Z,25.85
2019-02-17T12:25:46.657Z,25.50
2019-02-17T12:26:49.457Z,25.09
2019-02-17T12:27:46.920Z,25.20
2019-02-17T12:28:47.208Z,25.21
2019-02-17T12:29:47.205Z,24.88
2019-02-17T12:30:47.463Z,25.27
2019-02-17T12:31:47.637Z,25.30
2019-02-17T12:32:47.991Z,24.83
2019-02-17T12:33:48.114Z,24.93
2019-02-17T12:34:48.239Z,24.39
2019-02-17T12:35:48.385Z,24.28
2019-02-17T12:36:48.485Z,23.75
2019-02-17T12:37:48.691Z,23.32
2019-02-17T12:38:48.875Z,23.57
2019-02-17T12:39:49.094Z,23.54
2019-02-17T12:40:49.354Z,23.68
2019-02-17T12:41:49.529Z,23.97
2019-02-17T12:42:51.131Z,24.25
2019-02-17T12:43:50.914Z,24.50
2019-02-17T12:44:50.438Z,24.65
2019-02-17T12:45:50.313Z,24.31
2019-02-17T13:06:22.985Z,25.42
2019-02-17T13:07:28.801Z,25.82
2019-02-17T13:08:24.562Z,26.29
2019-02-17T13:09:25.042Z,26.58
2019-02-17T13:10:26.460Z,26.70
2019-02-17T13:11:25.376Z,27.12
2019-02-17T13:12:26.008Z,27.31
2019-02-17T13:13:26.609Z,27.27
2019-02-17T13:14:26.018Z,26.75
2019-02-17T13:15:26.942Z,26.40
2019-02-17T13:16:27.744Z,26.07
2019-02-17T13:17:28.173Z,25.83
2019-02-17T13:18:27.916Z,25.79
2019-02-17T13:19:27.517Z,26.57
2019-02-17T13:20:27.928Z,27.12
2019-02-17T13:21:28.283Z,27.43
2019-02-17T13:22:28.255Z,26.97
2019-02-17T13:23:28.675Z,27.24
2019-02-17T13:24:28.259Z,27.90
2019-02-17T13:25:29.936Z,27.96
2019-02-17T13:26:28.737Z,28.34
2019-02-17T13:27:28.824Z,28.37
2019-02-17T13:28:28.962Z,27.82
2019-02-17T13:29:29.382Z,27.51
2019-02-17T13:30:29.286Z,27.24
2019-02-17T13:31:29.837Z,27.34
2019-02-17T13:32:29.940Z,27.32
2019-02-17T13:33:38.775Z,27.78
2019-02-17T13:34:31.615Z,28.06
2019-02-17T13:35:30.167Z,28.03
2019-02-17T13:36:31.562Z,27.90
2019-02-17T13:37:30.652Z,26.99
2019-02-17T13:38:30.658Z,27.04
2019-02-17T13:39:31.044Z,26.67
2019-02-17T13:40:31.120Z,26.76
2019-02-17T13:41:31.091Z,26.85
2019-02-17T13:42:31.249Z,26.94
2019-02-17T13:43:32.184Z,25.87
2019-02-17T13:44:31.892Z,24.25
2019-02-17T13:45:32.634Z,23.55
2019-02-17T13:46:32.203Z,23.15
2019-02-17T13:47:32.322Z,23.17
2019-02-17T13:48:32.569Z,23.10
2019-02-17T13:49:32.838Z,23.39
2019-02-17T13:50:33.228Z,23.83
2019-02-17T13:51:33.683Z,24.39
2019-02-17T13:52:34.181Z,24.58
2019-02-17T13:53:34.351Z,24.78
2019-02-17T13:54:33.470Z,25.43
2019-02-17T13:55:34.569Z,25.51
2019-02-17T13:56:34.546Z,25.42
2019-02-17T13:57:40.724Z,24.83
2019-02-17T13:58:34.037Z,24.80
2019-02-17T13:59:34.368Z,24.37
2019-02-17T14:00:34.502Z,24.53
2019-02-17T14:01:35.364Z,24.65
2019-02-17T14:02:34.880Z,23.68
2019-02-17T14:03:35.249Z,22.83
